Time;durP1;ratioP1;P1;durP2;ratioP2;P2;SDS_P1;SDS_P2;PMS_P1;PMS_P2;Temp;Humidity;BMP_temperature;BMP_pressure;BME280_temperature;BME280_humidity;BME280_pressure;Samples;Min_cycle;Max_cycle;Signal;HPM_P1;HPM_P2
2023/12/22 00:01:42;;;;;;;1.35;1.27;;;;;;;8.35;73.94;100415.16;5085233;28;20028;-83
2023/12/22 00:04:08;;;;;;;0.10;0.10;;;;;;;8.41;74.18;100422.97;5092976;28;20081;-85
2023/12/22 00:06:34;;;;;;;0.40;0.40;;;;;;;8.43;74.24;100423.78;5095182;28;20055;-84
2023/12/22 00:09:00;;;;;;;2.75;0.90;;;;;;;8.52;73.91;100430.72;5083738;28;20521;-83
2023/12/22 00:11:26;;;;;;;0.10;0.10;;;;;;;8.51;74.56;100443.94;5084227;28;20468;-83
2023/12/22 00:13:53;;;;;;;0.55;0.55;;;;;;;8.63;74.36;100433.16;5086320;28;20016;-84
2023/12/22 00:16:19;;;;;;;0.75;0.75;;;;;;;8.52;73.82;100435.13;5103748;28;20027;-80
2023/12/22 00:18:45;;;;;;;0.20;0.20;;;;;;;8.68;73.83;100433.06;5102019;28;20016;-80
2023/12/22 00:21:11;;;;;;;0.20;0.20;;;;;;;8.58;73.98;100437.66;5099424;28;20119;-84
2023/12/22 00:23:38;;;;;;;0.10;0.10;;;;;;;8.66;73.54;100443.69;5090450;28;20021;-82
2023/12/22 00:26:05;;;;;;;0.10;0.10;;;;;;;8.77;73.44;100432.03;5087527;28;20028;-81
2023/12/22 00:28:32;;;;;;;0.20;0.20;;;;;;;8.81;73.55;100434.59;5086279;28;20032;-81
2023/12/22 00:30:58;;;;;;;0.13;0.13;;;;;;;8.79;73.42;100425.81;5085900;28;20115;-82
2023/12/22 00:33:25;;;;;;;0.15;0.15;;;;;;;8.79;72.93;100424.97;5083799;28;20507;-83
2023/12/22 00:35:52;;;;;;;0.35;0.35;;;;;;;8.82;72.77;100423.13;5085753;28;20081;-84
2023/12/22 00:38:18;;;;;;;0.10;0.10;;;;;;;8.70;71.00;100420.72;5092459;28;20039;-85
2023/12/22 00:40:44;;;;;;;0.20;0.20;;;;;;;8.81;71.27;100404.63;5084122;28;20036;-82
2023/12/22 00:43:11;;;;;;;0.10;0.10;;;;;;;8.71;70.00;100402.19;5082425;28;20511;-82
2023/12/22 00:45:37;;;;;;;0.20;0.20;;;;;;;8.81;68.17;100391.44;5087544;28;20066;-82
2023/12/22 00:48:06;;;;;;;0.10;0.10;;;;;;;8.79;66.70;100417.03;5087270;28;20032;-82
2023/12/22 00:50:32;;;;;;;0.10;0.10;;;;;;;8.92;66.00;100404.44;5098331;28;20036;-81
2023/12/22 00:53:02;;;;;;;0.10;0.10;;;;;;;9.12;65.99;100407.56;5087670;28;20481;-85
2023/12/22 00:55:28;;;;;;;0.10;0.10;;;;;;;9.12;64.93;100433.09;5094982;28;20028;-81
2023/12/22 00:57:54;;;;;;;0.10;0.10;;;;;;;9.25;65.07;100434.59;5084200;28;20025;-80
2023/12/22 01:00:20;;;;;;;0.43;0.43;;;;;;;9.21;64.56;100446.13;5091210;28;20036;-80
2023/12/22 01:02:47;;;;;;;1.15;1.15;;;;;;;9.13;64.93;100456.00;5104838;28;20028;-78
2023/12/22 01:05:13;;;;;;;0.10;0.10;;;;;;;9.13;64.07;100456.00;5095214;28;20486;-80
2023/12/22 01:07:39;;;;;;;0.10;0.10;;;;;;;9.16;63.60;100447.97;5099907;28;20509;-82
2023/12/22 01:10:06;;;;;;;0.10;0.10;;;;;;;9.28;62.83;100460.09;5096906;28;20047;-82
2023/12/22 01:12:32;;;;;;;0.10;0.10;;;;;;;9.22;61.13;100435.53;5095650;28;20471;-81
2023/12/22 01:14:58;;;;;;;0.10;0.10;;;;;;;9.26;61.42;100451.31;5082027;28;20028;-85
2023/12/22 01:17:25;;;;;;;0.10;0.10;;;;;;;9.19;60.70;100474.38;5088179;28;20028;-86
2023/12/22 01:19:51;;;;;;;0.57;0.57;;;;;;;9.31;60.65;100452.06;5086527;28;20039;-84
2023/12/22 01:22:17;;;;;;;0.10;0.10;;;;;;;9.30;59.54;100447.72;5099040;28;20039;-85
2023/12/22 01:24:45;;;;;;;0.13;0.13;;;;;;;9.27;59.00;100453.94;5093651;28;20437;-84
2023/12/22 01:27:11;;;;;;;1.27;0.82;;;;;;;9.28;59.80;100460.09;5091482;28;20043;-85
2023/12/22 01:29:38;;;;;;;0.10;0.10;;;;;;;9.25;59.41;100458.38;5089092;28;20032;-82
2023/12/22 01:32:04;;;;;;;0.22;0.22;;;;;;;9.29;59.69;100452.13;5090601;28;20087;-83
2023/12/22 01:34:30;;;;;;;0.20;0.20;;;;;;;9.26;59.22;100448.66;5092750;28;20207;-83
2023/12/22 01:36:57;;;;;;;0.13;0.13;;;;;;;9.34;59.96;100479.31;5100526;28;20024;-80
2023/12/22 01:39:23;;;;;;;0.20;0.20;;;;;;;9.26;59.64;100468.06;5113605;28;20066;-79
2023/12/22 01:41:49;;;;;;;0.10;0.10;;;;;;;9.32;59.08;100488.19;5103030;28;20402;-82
2023/12/22 01:44:15;;;;;;;0.10;0.10;;;;;;;9.25;58.87;100490.09;5093561;28;20027;-82
2023/12/22 01:46:42;;;;;;;0.13;0.13;;;;;;;9.33;58.24;100501.41;5086600;28;20040;-83
2023/12/22 01:49:09;;;;;;;0.25;0.25;;;;;;;9.45;58.18;100488.81;5078784;28;20076;-83
2023/12/22 01:51:44;;;;;;;0.10;0.10;;;;;;;9.41;57.40;100524.16;5085665;28;20165;-84
2023/12/22 01:54:13;;;;;;;0.20;0.20;;;;;;;9.43;57.60;100490.63;5081601;28;20025;-83
2023/12/22 01:56:40;;;;;;;0.10;0.10;;;;;;;9.54;57.59;100473.63;5094075;28;20092;-83
2023/12/22 01:59:07;;;;;;;0.17;0.17;;;;;;;9.46;57.51;100480.84;5099286;28;20123;-84
2023/12/22 02:01:34;;;;;;;0.10;0.10;;;;;;;9.59;57.28;100480.59;5098371;28;20462;-82
2023/12/22 02:04:02;;;;;;;3.10;1.75;;;;;;;9.63;57.20;100462.00;5090876;28;20046;-85
2023/12/22 02:06:31;;;;;;;0.10;0.10;;;;;;;9.63;56.47;100477.84;5084986;28;20040;-83
2023/12/22 02:08:58;;;;;;;0.20;0.20;;;;;;;9.70;56.74;100468.84;5087959;28;20031;-85
2023/12/22 02:11:24;;;;;;;0.10;0.10;;;;;;;9.74;56.96;100447.63;5090844;28;20406;-85
2023/12/22 02:13:50;;;;;;;0.20;0.20;;;;;;;9.64;57.44;100463.69;5093215;28;20217;-85
2023/12/22 02:16:54;;;;;;;0.10;0.10;;;;;;;9.84;57.40;100459.75;5090024;28;20039;-85
2023/12/22 02:22:14;;;;;;;0.20;0.20;;;;;;;9.98;57.86;100451.47;5101023;27;1275446;-83
2023/12/22 02:24:41;;;;;;;0.10;0.10;;;;;;;10.02;57.90;100458.44;5118265;28;20403;-85
2023/12/22 02:27:21;;;;;;;1.38;0.65;;;;;;;10.11;58.12;100457.38;5136819;28;20024;-85
2023/12/22 02:29:51;;;;;;;0.10;0.10;;;;;;;10.08;58.76;100452.13;5118634;27;20077;-85
2023/12/22 02:32:27;;;;;;;0.20;0.20;;;;;;;10.10;58.91;100459.13;5113280;28;20436;-84
2023/12/22 02:34:56;;;;;;;0.68;0.63;;;;;;;9.99;59.19;100455.88;5113271;28;20023;-84
2023/12/22 02:37:23;;;;;;;0.40;0.40;;;;;;;10.18;58.35;100454.53;5110338;28;20024;-84
2023/12/22 02:39:52;;;;;;;0.15;0.15;;;;;;;10.18;58.21;100453.63;5108198;28;20073;-85
2023/12/22 02:42:20;;;;;;;0.30;0.30;;;;;;;10.24;58.38;100461.41;5110701;28;20069;-83
2023/12/22 02:44:46;;;;;;;0.10;0.10;;;;;;;10.23;57.86;100449.13;5111321;28;20028;-83
2023/12/22 02:47:12;;;;;;;0.10;0.10;;;;;;;10.21;58.13;100448.28;5110751;28;20032;-83
2023/12/22 02:49:39;;;;;;;0.10;0.10;;;;;;;10.27;57.52;100426.94;5109211;28;20055;-82
2023/12/22 02:52:05;;;;;;;0.30;0.30;;;;;;;10.28;57.56;100438.38;5108116;28;20036;-83
2023/12/22 02:54:32;;;;;;;0.20;0.20;;;;;;;10.16;57.41;100434.28;5109629;28;20449;-85
2023/12/22 02:57:00;;;;;;;0.10;0.10;;;;;;;10.20;57.43;100439.47;5109108;28;20115;-84
2023/12/22 02:59:28;;;;;;;0.10;0.10;;;;;;;10.32;56.94;100434.78;5123861;28;20004;-82
2023/12/22 03:01:54;;;;;;;0.20;0.20;;;;;;;10.26;57.72;100440.22;5127723;28;20024;-82
2023/12/22 03:04:21;;;;;;;0.20;0.20;;;;;;;10.34;57.51;100438.22;5114761;28;20036;-84
2023/12/22 03:06:47;;;;;;;0.75;0.75;;;;;;;10.40;57.78;100450.50;5108170;28;20038;-85
2023/12/22 03:09:13;;;;;;;0.10;0.10;;;;;;;10.26;58.17;100456.97;5107989;28;20114;-82
2023/12/22 03:11:39;;;;;;;0.20;0.20;;;;;;;10.31;57.58;100447.13;5114203;28;20050;-84
2023/12/22 03:14:06;;;;;;;0.10;0.10;;;;;;;10.38;57.78;100428.47;5111251;28;20032;-84
2023/12/22 03:16:32;;;;;;;0.20;0.20;;;;;;;10.40;57.69;100454.00;5106920;28;20027;-82
2023/12/22 03:19:01;;;;;;;1.45;1.05;;;;;;;10.41;57.66;100447.81;5125700;28;20053;-82
2023/12/22 03:21:28;;;;;;;0.75;0.75;;;;;;;10.28;57.41;100465.75;5110523;28;20047;-83
2023/12/22 03:23:54;;;;;;;0.38;0.38;;;;;;;10.34;56.70;100440.88;5108511;28;20039;-85
2023/12/22 03:26:20;;;;;;;0.10;0.10;;;;;;;10.34;55.75;100443.53;5112110;28;20024;-85
2023/12/22 03:28:46;;;;;;;0.10;0.10;;;;;;;10.38;55.55;100444.34;5106287;28;20084;-85
2023/12/22 03:31:12;;;;;;;0.30;0.30;;;;;;;10.35;54.79;100448.81;5107700;28;20057;-84
2023/12/22 03:33:38;;;;;;;0.10;0.10;;;;;;;10.30;55.17;100463.91;5098005;28;20035;-83
2023/12/22 03:36:05;;;;;;;0.85;0.85;;;;;;;10.41;54.53;100460.19;5097142;28;20467;-84
2023/12/22 03:38:31;;;;;;;0.80;0.80;;;;;;;10.33;54.38;100447.97;5097455;28;20028;-84
2023/12/22 03:40:57;;;;;;;5.93;1.67;;;;;;;10.22;54.07;100459.72;5096454;28;20051;-84
2023/12/22 03:43:23;;;;;;;0.13;0.13;;;;;;;10.46;53.75;100450.34;5097209;28;20047;-84
2023/12/22 03:45:50;;;;;;;0.20;0.20;;;;;;;10.45;53.19;100445.94;5095318;28;20080;-80
2023/12/22 03:48:16;;;;;;;0.15;0.15;;;;;;;10.44;53.67;100466.28;5107122;28;20032;-82
2023/12/22 03:50:42;;;;;;;0.20;0.20;;;;;;;10.35;53.17;100455.88;5100535;28;20051;-84
2023/12/22 03:53:08;;;;;;;0.10;0.10;;;;;;;10.38;53.46;100447.91;5089633;28;20028;-84
2023/12/22 03:55:34;;;;;;;0.10;0.10;;;;;;;10.36;53.77;100447.06;5101071;28;20043;-85
2023/12/22 03:58:04;;;;;;;0.10;0.10;;;;;;;10.56;53.87;100451.84;5101351;28;21335;-84
2023/12/22 04:00:31;;;;;;;0.40;0.40;;;;;;;10.54;54.45;100456.28;5094430;28;20024;-85
2023/12/22 04:02:57;;;;;;;0.10;0.10;;;;;;;10.54;54.51;100440.41;5098546;28;20040;-83
2023/12/22 04:05:24;;;;;;;0.17;0.17;;;;;;;10.70;54.22;100482.41;5091475;28;20079;-84
2023/12/22 04:07:50;;;;;;;0.10;0.10;;;;;;;10.58;54.09;100439.44;5099071;28;20066;-84
2023/12/22 04:10:18;;;;;;;0.10;0.10;;;;;;;10.68;53.84;100469.19;5088938;28;20029;-84
2023/12/22 04:12:44;;;;;;;0.60;0.60;;;;;;;10.63;53.90;100482.56;5092159;28;20059;-83
2023/12/22 04:15:10;;;;;;;0.20;0.20;;;;;;;10.73;53.92;100482.31;5089819;28;20028;-82
2023/12/22 04:17:36;;;;;;;0.10;0.10;;;;;;;10.77;53.80;100487.50;5099656;28;20028;-83
2023/12/22 04:20:03;;;;;;;0.10;0.10;;;;;;;10.86;54.24;100510.22;5090556;28;20028;-83
2023/12/22 04:22:29;;;;;;;0.20;0.20;;;;;;;10.83;54.31;100494.41;5107670;28;20032;-80
2023/12/22 04:24:56;;;;;;;0.20;0.20;;;;;;;10.88;55.11;100491.63;5108238;28;20020;-79
2023/12/22 04:27:22;;;;;;;0.20;0.20;;;;;;;10.84;55.63;100488.19;5100359;28;20541;-82
2023/12/22 04:29:48;;;;;;;0.10;0.10;;;;;;;10.97;55.40;100486.09;5087944;28;20498;-82
2023/12/22 04:32:14;;;;;;;0.10;0.10;;;;;;;10.81;54.96;100475.88;5089648;28;20043;-81
2023/12/22 04:34:41;;;;;;;0.40;0.40;;;;;;;10.82;55.15;100474.13;5091025;28;20444;-82
2023/12/22 04:37:07;;;;;;;0.10;0.10;;;;;;;10.85;54.90;100476.69;5091184;28;20028;-80
2023/12/22 04:39:33;;;;;;;2.35;2.15;;;;;;;10.91;55.25;100476.50;5094264;28;20024;-82
2023/12/22 04:41:59;;;;;;;0.10;0.10;;;;;;;10.85;55.14;100471.38;5094531;28;20024;-82
2023/12/22 04:44:25;;;;;;;0.30;0.30;;;;;;;10.91;55.34;100476.50;5094359;28;20058;-82
2023/12/22 04:46:51;;;;;;;0.17;0.17;;;;;;;10.97;55.99;100472.84;5094864;28;20016;-83
2023/12/22 04:49:18;;;;;;;0.10;0.10;;;;;;;10.98;56.30;100471.94;5092665;28;20028;-84
2023/12/22 04:51:44;;;;;;;0.10;0.10;;;;;;;11.05;57.13;100454.06;5100472;28;20012;-84
2023/12/22 04:54:11;;;;;;;0.10;0.10;;;;;;;11.16;57.61;100470.53;5096762;28;20028;-83
2023/12/22 04:56:37;;;;;;;0.10;0.10;;;;;;;11.11;58.09;100473.31;5094870;28;20481;-83
2023/12/22 04:59:07;;;;;;;0.10;0.10;;;;;;;11.10;58.88;100479.53;5090922;28;20034;-84
2023/12/22 05:01:40;;;;;;;0.10;0.10;;;;;;;11.08;59.66;100484.00;5085939;28;20034;-83
2023/12/22 05:04:06;;;;;;;0.20;0.20;;;;;;;11.25;59.06;100486.19;5088270;28;20029;-83
2023/12/22 05:06:32;;;;;;;0.10;0.10;;;;;;;11.09;60.29;100495.47;5085668;28;20099;-85
2023/12/22 05:08:58;;;;;;;0.10;0.10;;;;;;;11.29;59.35;100490.50;5091675;28;20487;-84
2023/12/22 05:11:24;;;;;;;0.68;0.68;;;;;;;11.25;60.04;100496.81;5091311;28;20028;-82
2023/12/22 05:13:51;;;;;;;0.10;0.10;;;;;;;11.15;59.98;100496.19;5095808;28;20024;-85
2023/12/22 05:16:17;;;;;;;0.20;0.20;;;;;;;11.21;59.91;100499.56;5095932;28;20028;-83
2023/12/22 05:18:43;;;;;;;0.10;0.10;;;;;;;11.33;59.91;100488.63;5092333;28;20020;-84
2023/12/22 05:21:13;;;;;;;0.10;0.10;;;;;;;11.42;59.02;100488.34;5095910;28;20040;-84
2023/12/22 05:23:40;;;;;;;0.10;0.10;;;;;;;11.35;58.89;100483.25;5095429;28;20514;-85
2023/12/22 05:26:06;;;;;;;0.10;0.10;;;;;;;11.26;59.34;100481.75;5095964;28;20054;-86
2023/12/22 05:28:33;;;;;;;13.77;5.65;;;;;;;11.21;59.21;100475.72;5088311;28;20032;-85
2023/12/22 05:30:59;;;;;;;0.20;0.20;;;;;;;11.35;59.48;100486.78;5096375;28;20043;-85
2023/12/22 05:33:25;;;;;;;0.10;0.10;;;;;;;11.31;59.14;100459.50;5095746;28;20409;-82
2023/12/22 05:35:52;;;;;;;0.13;0.13;;;;;;;11.23;59.82;100453.53;5097757;28;20020;-81
2023/12/22 05:38:18;;;;;;;2.45;0.65;;;;;;;11.25;59.40;100470.28;5100669;28;20036;-82
2023/12/22 05:40:46;;;;;;;0.10;0.10;;;;;;;11.25;59.72;100485.31;5096416;28;20036;-84
2023/12/22 05:43:12;;;;;;;0.10;0.10;;;;;;;11.21;60.19;100471.25;5098737;28;20074;-83
2023/12/22 05:45:41;;;;;;;0.10;0.10;;;;;;;11.25;60.19;100466.75;5098676;28;20107;-80
2023/12/22 05:48:08;;;;;;;0.20;0.20;;;;;;;11.21;60.33;100467.75;5115325;28;20020;-80
2023/12/22 05:50:37;;;;;;;0.50;0.50;;;;;;;11.27;60.00;100452.53;5115127;28;20046;-80
2023/12/22 05:53:03;;;;;;;0.10;0.10;;;;;;;11.24;60.90;100457.94;5093940;28;20032;-82
2023/12/22 05:55:29;;;;;;;0.10;0.10;;;;;;;11.27;61.12;100452.53;5089180;28;20028;-81
2023/12/22 05:57:56;;;;;;;0.20;0.20;;;;;;;11.29;60.28;100456.00;5090181;28;20028;-82
2023/12/22 06:00:22;;;;;;;0.85;0.85;;;;;;;11.30;60.62;100478.09;5084863;28;20036;-83
2023/12/22 06:02:48;;;;;;;0.10;0.10;;;;;;;11.35;60.56;100478.81;5090608;28;20024;-81
2023/12/22 06:05:15;;;;;;;0.20;0.20;;;;;;;11.37;60.84;100484.09;5086598;28;20063;-83
2023/12/22 06:07:41;;;;;;;0.20;0.20;;;;;;;11.26;60.75;100485.25;5089210;28;20043;-81
2023/12/22 06:10:09;;;;;;;0.50;0.50;;;;;;;11.38;61.12;100473.44;5090570;28;20040;-82
2023/12/22 06:12:36;;;;;;;0.52;0.40;;;;;;;11.33;60.73;100470.91;5090159;28;20032;-82
2023/12/22 06:15:02;;;;;;;0.32;0.32;;;;;;;11.49;60.44;100483.75;5091243;28;20510;-82
2023/12/22 06:17:28;;;;;;;0.20;0.20;;;;;;;11.48;61.07;100460.78;5092460;28;20039;-83
2023/12/22 06:19:54;;;;;;;0.10;0.10;;;;;;;11.35;60.55;100470.00;5086867;28;20031;-84
2023/12/22 06:22:21;;;;;;;0.70;0.70;;;;;;;11.42;60.23;100472.41;5098992;28;20036;-83
2023/12/22 06:24:47;;;;;;;0.30;0.30;;;;;;;11.54;60.67;100481.81;5099242;28;20028;-82
2023/12/22 06:27:13;;;;;;;0.10;0.10;;;;;;;11.61;60.60;100482.50;5096616;28;20039;-82
2023/12/22 06:29:40;;;;;;;0.20;0.20;;;;;;;11.45;61.04;100508.59;5095071;28;20036;-83
2023/12/22 06:32:06;;;;;;;0.10;0.10;;;;;;;11.39;60.55;100503.47;5095273;28;20021;-82
2023/12/22 06:34:32;;;;;;;0.10;0.10;;;;;;;11.43;60.96;100486.56;5096582;28;20109;-83
2023/12/22 06:36:59;;;;;;;0.38;0.38;;;;;;;11.58;60.28;100464.88;5098193;28;20077;-83
2023/12/22 06:39:25;;;;;;;0.10;0.10;;;;;;;11.57;60.46;100473.75;5098712;28;20030;-83
2023/12/22 06:41:51;;;;;;;0.10;0.10;;;;;;;11.65;60.07;100461.13;5097734;28;20035;-84
2023/12/22 06:44:17;;;;;;;0.10;0.10;;;;;;;11.54;60.35;100465.91;5093575;28;20425;-84
2023/12/22 06:46:43;;;;;;;0.40;0.40;;;;;;;11.51;60.51;100481.88;5097354;28;20532;-84
2023/12/22 06:49:09;;;;;;;0.10;0.10;;;;;;;11.56;60.04;100469.34;5098360;28;20032;-86
2023/12/22 06:51:36;;;;;;;45.22;1.45;;;;;;;11.59;60.29;100474.59;5094517;28;20514;-84
2023/12/22 06:54:03;;;;;;;0.30;0.30;;;;;;;11.58;60.25;100475.50;5101503;28;20584;-84
2023/12/22 06:56:31;;;;;;;0.47;0.47;;;;;;;11.54;60.83;100483.59;5102059;28;20063;-85
2023/12/22 06:58:58;;;;;;;0.57;0.57;;;;;;;11.55;60.37;100451.72;5098415;28;20032;-85
2023/12/22 07:04:06;;;;;;;2.30;1.95;;;;;;;11.68;61.06;100446.03;5095062;27;20452;-85
2023/12/22 07:06:34;;;;;;;5.57;2.83;;;;;;;11.63;60.43;100464.75;5079560;28;20058;-86
2023/12/22 07:11:55;;;;;;;0.22;0.22;;;;;;;11.59;61.41;100456.00;5090854;28;20379;-87
2023/12/22 07:14:22;;;;;;;5.93;1.75;;;;;;;11.70;61.02;100449.50;5084816;28;20020;-88
2023/12/22 07:16:51;;;;;;;0.10;0.10;;;;;;;11.62;61.14;100455.91;5083116;28;20479;-87
2023/12/22 07:19:17;;;;;;;0.10;0.10;;;;;;;11.84;60.68;100436.66;5075066;28;20024;-87
2023/12/22 07:21:44;;;;;;;0.10;0.10;;;;;;;11.78;60.92;100447.47;5082287;28;20040;-87
2023/12/22 07:24:10;;;;;;;0.10;0.10;;;;;;;11.62;60.84;100455.03;5080146;28;20029;-87
2023/12/22 07:26:38;;;;;;;0.10;0.10;;;;;;;11.72;60.86;100440.56;5079318;28;20515;-87
2023/12/22 07:29:05;;;;;;;0.10;0.10;;;;;;;11.69;61.62;100448.63;5078112;28;20033;-89
2023/12/22 07:31:34;;;;;;;0.20;0.20;;;;;;;11.59;62.19;100444.50;5069240;28;20025;-86
2023/12/22 07:34:03;;;;;;;0.10;0.10;;;;;;;11.70;61.71;100460.09;5073098;28;20079;-89
2023/12/22 07:39:53;;;;;;;0.40;0.40;;;;;;;11.79;61.87;100476.63;5067624;28;20090;-87
2023/12/22 07:43:03;;;;;;;;;;;;;;;;;;;;;
2023/12/22 07:45:50;;;;;;;0.10;0.10;;;;;;;11.62;62.61;100479.78;5078886;28;20044;-88
2023/12/22 07:49:10;;;;;;;;;;;;;;;;;;;;;
2023/12/22 07:52:25;;;;;;;0.10;0.10;;;;;;;11.76;63.48;100444.88;5070428;28;20113;-89
2023/12/22 07:55:26;;;;;;;;;;;;;;;;;;;;;
2023/12/22 07:58:50;;;;;;;0.10;0.10;;;;;;;11.76;64.04;100433.38;5087523;28;20399;-89
2023/12/22 08:01:01;;;;;;;0.10;0.10;;;;;;;11.61;65.66;100440.91;5071533;28;20029;-88
2023/12/22 08:03:39;;;;;;;0.10;0.10;;;;;;;11.56;66.01;100477.31;5070637;28;20036;-89
2023/12/22 08:06:19;;;;;;;0.10;0.10;;;;;;;11.51;66.95;100442.09;5072640;28;20029;-89
2023/12/22 08:09:03;;;;;;;0.10;0.10;;;;;;;11.43;67.43;100446.78;5072965;28;20033;-89
2023/12/22 08:11:30;;;;;;;0.10;0.10;;;;;;;11.36;67.80;100445.22;5071121;28;20033;-90
2023/12/22 08:14:22;;;;;;;0.10;0.10;;;;;;;11.49;67.44;100441.28;5070158;28;20029;-89
2023/12/22 08:16:57;;;;;;;0.10;0.10;;;;;;;11.49;68.29;100459.88;5072381;28;20036;-88
2023/12/22 08:19:26;;;;;;;2.40;2.20;;;;;;;11.49;68.36;100455.41;5084160;28;20020;-87
2023/12/22 08:22:14;;;;;;;;;;;;;;;;;;;;;
2023/12/22 08:28:25;;;;;;;;;;;;;;;;;;;;;
2023/12/22 08:32:07;;;;;;;0.20;0.20;;;;;;;11.45;69.84;100435.22;5061499;28;20044;-88
2023/12/22 08:38:23;;;;;;;;;;;;;;;;;;;;;
2023/12/22 08:45:29;;;;;;;;;;;;;;;;;;;;;
2023/12/22 08:49:35;;;;;;;0.20;0.20;;;;;;;11.47;71.32;100432.50;4916646;29;20072;-89
2023/12/22 08:51:35;;;;;;;0.10;0.10;;;;;;;11.35;71.33;100433.72;4927931;29;20023;-87
2023/12/22 08:54:01;;;;;;;2.53;2.10;;;;;;;11.35;71.47;100423.13;4967816;28;20059;-85
2023/12/22 08:56:28;;;;;;;0.10;0.10;;;;;;;11.42;71.29;100429.13;4965420;28;20084;-85
2023/12/22 08:58:55;;;;;;;0.10;0.10;;;;;;;11.41;72.00;100427.38;4977780;28;20061;-85
2023/12/22 09:01:22;;;;;;;0.10;0.10;;;;;;;11.41;71.81;100440.66;4956624;28;20039;-86
2023/12/22 09:03:49;;;;;;;0.10;0.10;;;;;;;11.38;71.27;100438.09;4958972;29;20490;-86
2023/12/22 09:06:17;;;;;;;0.10;0.10;;;;;;;11.43;71.57;100436.16;4961277;29;20043;-86
2023/12/22 09:08:44;;;;;;;0.10;0.10;;;;;;;11.38;71.38;100441.59;4959530;29;20058;-86
2023/12/22 09:11:12;;;;;;;0.10;0.10;;;;;;;11.53;71.78;100431.47;4959288;28;20027;-86
2023/12/22 09:13:39;;;;;;;0.10;0.10;;;;;;;11.62;70.54;100442.63;4957412;28;20549;-85
2023/12/22 09:16:05;;;;;;;0.15;0.15;;;;;;;11.74;70.84;100429.91;5011022;28;20046;-84
2023/12/22 09:18:32;;;;;;;0.20;0.20;;;;;;;11.74;70.26;100445.81;5011444;28;20118;-87
2023/12/22 09:21:35;;;;;;;0.10;0.10;;;;;;;11.74;69.64;100420.16;5033947;28;20033;-88
2023/12/22 09:24:47;;;;;;;;;;;;;;;;;;;;;
2023/12/22 09:27:45;;;;;;;;;;;;;;;;;;;;;
2023/12/22 09:30:45;;;;;;;0.20;0.20;;;;;;;11.93;69.02;100444.31;5060006;28;20120;-87
2023/12/22 09:33:14;;;;;;;0.20;0.20;;;;;;;11.96;68.36;100456.66;5052065;28;20083;-86
2023/12/22 09:36:04;;;;;;;0.10;0.10;;;;;;;12.09;67.62;100478.41;5051988;28;20497;-86
2023/12/22 09:38:44;;;;;;;0.30;0.30;;;;;;;12.02;67.87;100477.72;5046596;28;20064;-86
2023/12/22 09:41:17;;;;;;;1.90;1.75;;;;;;;12.37;67.09;100437.63;5051002;28;20059;-86
2023/12/22 09:44:44;;;;;;;0.10;0.10;;;;;;;12.42;67.21;100443.66;5049773;28;20034;-86
2023/12/22 09:47:55;;;;;;;0.30;0.30;;;;;;;12.34;67.31;100449.25;5035500;28;21379;-86
2023/12/22 09:51:14;;;;;;;0.10;0.10;;;;;;;12.43;66.76;100464.84;5049293;28;20060;-86
2023/12/22 09:53:44;;;;;;;0.10;0.10;;;;;;;12.38;67.08;100461.50;5067843;28;20021;-86
2023/12/22 09:56:27;;;;;;;0.10;0.10;;;;;;;12.37;67.37;100461.53;5063549;28;20056;-87
2023/12/22 10:06:37;;;;;;;0.10;0.10;;;;;;;12.45;67.11;100473.66;5003456;28;20050;-87
2023/12/22 10:09:45;;;;;;;;;;;;;;;;;;;;;
2023/12/22 10:12:23;;;;;;;0.10;0.10;;;;;;;12.38;67.25;100453.50;4960419;28;20042;-87
2023/12/22 10:14:53;;;;;;;0.10;0.10;;;;;;;12.44;67.57;100457.78;4994246;28;20042;-85
2023/12/22 10:17:20;;;;;;;0.10;0.10;;;;;;;12.45;66.73;100465.69;4997812;28;20065;-86
2023/12/22 10:19:46;;;;;;;0.10;0.10;;;;;;;12.36;67.29;100460.69;4996773;28;20041;-85
2023/12/22 10:22:26;;;;;;;0.10;0.10;;;;;;;12.45;66.68;100463.03;4997529;28;20542;-85
2023/12/22 10:24:52;;;;;;;0.63;0.63;;;;;;;12.30;66.91;100471.53;5004482;28;20572;-85
2023/12/22 10:27:22;;;;;;;0.10;0.10;;;;;;;12.53;65.97;100452.13;5006825;28;20107;-85
2023/12/22 10:29:49;;;;;;;0.10;0.10;;;;;;;12.46;66.43;100466.53;5011099;28;20046;-86
2023/12/22 10:32:16;;;;;;;0.30;0.30;;;;;;;12.62;65.76;100457.13;5009373;28;20057;-85
2023/12/22 10:34:51;;;;;;;0.20;0.20;;;;;;;12.66;65.35;100455.25;5021290;28;20053;-85
2023/12/22 10:37:22;;;;;;;0.10;0.10;;;;;;;12.58;64.93;100465.25;5006488;28;20042;-86
2023/12/22 10:39:55;;;;;;;0.20;0.20;;;;;;;12.73;65.12;100474.50;5008323;28;20037;-87
2023/12/22 10:42:31;;;;;;;0.20;0.20;;;;;;;12.75;64.55;100470.84;5033662;28;20206;-86
2023/12/22 10:45:11;;;;;;;0.20;0.20;;;;;;;12.85;64.62;100463.44;5071607;28;20130;-86
2023/12/22 10:47:43;;;;;;;0.10;0.10;;;;;;;12.76;64.55;100474.38;5065067;28;20028;-86
2023/12/22 10:50:20;;;;;;;0.13;0.13;;;;;;;12.77;64.28;100469.03;5063182;28;20257;-85
2023/12/22 10:52:56;;;;;;;0.10;0.10;;;;;;;12.86;64.08;100459.84;5066901;28;20307;-86
2023/12/22 10:55:40;;;;;;;0.10;0.10;;;;;;;12.98;64.05;100458.53;5066282;28;20028;-86
2023/12/22 10:58:15;;;;;;;0.10;0.10;;;;;;;13.02;64.37;100460.19;5060757;28;20021;-85
2023/12/22 11:00:51;;;;;;;0.10;0.10;;;;;;;13.02;63.97;100480.56;5052078;28;20029;-86
2023/12/22 11:03:26;;;;;;;0.10;0.10;;;;;;;13.04;63.97;100462.78;5058175;28;20369;-85
2023/12/22 11:06:20;;;;;;;0.10;0.10;;;;;;;13.13;63.41;100454.44;5061393;28;20088;-86
2023/12/22 11:09:05;;;;;;;0.57;0.57;;;;;;;13.15;63.52;100412.69;5048032;28;20037;-85
2023/12/22 11:11:40;;;;;;;0.20;0.20;;;;;;;13.04;63.71;100449.47;5055368;28;20032;-85
2023/12/22 11:14:10;;;;;;;0.10;0.10;;;;;;;13.02;63.55;100433.59;5060047;28;20036;-86
2023/12/22 11:16:36;;;;;;;0.13;0.13;;;;;;;13.02;63.58;100473.47;5058816;28;20032;-83
2023/12/22 11:19:07;;;;;;;0.10;0.10;;;;;;;13.01;63.71;100437.16;5078238;28;20021;-86
2023/12/22 11:21:40;;;;;;;0.25;0.25;;;;;;;13.00;63.65;100451.38;5069988;28;20033;-87
2023/12/22 11:24:15;;;;;;;0.10;0.10;;;;;;;13.09;63.12;100444.84;5064980;28;20047;-84
2023/12/22 11:26:49;;;;;;;0.10;0.10;;;;;;;13.16;62.79;100445.47;5075025;28;20029;-86
2023/12/22 11:29:18;;;;;;;1.15;1.15;;;;;;;13.13;63.18;100397.72;5075166;28;20021;-86
2023/12/22 11:31:47;;;;;;;0.15;0.15;;;;;;;13.13;63.55;100451.78;5056795;28;20021;-86
2023/12/22 11:34:20;;;;;;;0.10;0.10;;;;;;;13.09;63.33;100426.22;5054424;28;20116;-86
2023/12/22 11:36:47;;;;;;;0.10;0.10;;;;;;;13.07;63.15;100430.72;5055007;28;20033;-86
2023/12/22 11:39:14;;;;;;;0.10;0.10;;;;;;;13.08;63.73;100425.38;5059070;28;20051;-86
2023/12/22 11:41:47;;;;;;;0.10;0.10;;;;;;;13.07;63.23;100407.69;5061934;28;20033;-86
2023/12/22 11:44:14;;;;;;;0.10;0.10;;;;;;;13.24;62.97;100428.31;5062786;28;20008;-86
2023/12/22 11:46:40;;;;;;;0.10;0.10;;;;;;;12.97;64.91;100447.97;5055794;28;20049;-86
2023/12/22 11:49:06;;;;;;;0.40;0.40;;;;;;;12.93;65.16;100394.91;5053469;28;20029;-85
2023/12/22 11:57:17;;;;;;;0.10;0.10;;;;;;;12.62;67.72;100397.78;5000874;28;20661;-86
2023/12/22 11:59:14;;;;;;;0.10;0.10;;;;;;;12.40;67.71;100429.53;5009072;28;20127;-87
2023/12/22 12:05:30;;;;;;;0.10;0.10;;;;;;;12.45;67.29;100417.00;4980084;28;20027;-87
2023/12/22 12:08:46;;;;;;;0.10;0.10;;;;;;;12.47;66.77;100415.13;5031127;28;20233;-87
2023/12/22 12:11:13;;;;;;;0.10;0.10;;;;;;;12.42;66.80;100436.56;4993157;28;20054;-85
2023/12/22 12:13:44;;;;;;;0.10;0.10;;;;;;;12.55;66.06;100402.47;5030977;28;20080;-84
2023/12/22 12:16:12;;;;;;;0.57;0.57;;;;;;;12.56;66.20;100382.94;5013286;28;20369;-84
2023/12/22 12:18:38;;;;;;;4.57;1.65;;;;;;;12.50;65.87;100383.16;5036740;28;20034;-84
2023/12/22 12:21:08;;;;;;;0.10;0.10;;;;;;;12.53;65.83;100412.25;5033368;28;20586;-85
2023/12/22 12:23:34;;;;;;;10.68;4.05;;;;;;;12.52;65.60;100383.09;5029627;28;20515;-83
2023/12/22 12:26:01;;;;;;;0.10;0.10;;;;;;;12.58;65.32;100390.84;5034856;28;20586;-85
2023/12/22 12:28:30;;;;;;;0.10;0.10;;;;;;;12.55;65.94;100390.97;5042674;28;20111;-85
2023/12/22 12:30:59;;;;;;;0.85;0.85;;;;;;;12.68;65.37;100407.34;5035403;28;20041;-84
2023/12/22 12:33:26;;;;;;;0.13;0.13;;;;;;;12.54;65.69;100424.63;5034393;28;20033;-84
2023/12/22 12:35:56;;;;;;;0.20;0.20;;;;;;;12.66;64.80;100399.44;5049460;28;20112;-84
2023/12/22 12:38:44;;;;;;;0.20;0.20;;;;;;;12.66;64.82;100403.84;5053836;28;20514;-83